sensor_id;sensor_type;location;lat;lon;timestamp;temperature;humidity
3699;DHT22;1865;50.918;7.092;2023-03-20T00:02:23;14.70;55.40
3699;DHT22;1865;50.918;7.092;2023-03-20T00:04:49;14.60;55.10
3699;DHT22;1865;50.918;7.092;2023-03-20T00:07:15;14.50;55.20
3699;DHT22;1865;50.918;7.092;2023-03-20T00:09:40;14.50;55.30
3699;DHT22;1865;50.918;7.092;2023-03-20T00:12:11;14.50;55.10
3699;DHT22;1865;50.918;7.092;2023-03-20T00:14:39;14.50;55.20
3699;DHT22;1865;50.918;7.092;2023-03-20T00:17:10;14.50;55.00
3699;DHT22;1865;50.918;7.092;2023-03-20T00:19:36;14.60;54.80
3699;DHT22;1865;50.918;7.092;2023-03-20T00:22:03;14.50;54.70
3699;DHT22;1865;50.918;7.092;2023-03-20T00:24:29;14.40;54.70
3699;DHT22;1865;50.918;7.092;2023-03-20T00:26:54;14.40;54.70
3699;DHT22;1865;50.918;7.092;2023-03-20T00:29:28;14.40;54.50
3699;DHT22;1865;50.918;7.092;2023-03-20T00:31:55;14.40;53.90
3699;DHT22;1865;50.918;7.092;2023-03-20T00:34:23;14.40;53.60
3699;DHT22;1865;50.918;7.092;2023-03-20T00:36:50;14.30;53.70
3699;DHT22;1865;50.918;7.092;2023-03-20T00:39:16;14.20;53.20
3699;DHT22;1865;50.918;7.092;2023-03-20T00:42:02;14.20;53.40
3699;DHT22;1865;50.918;7.092;2023-03-20T00:44:37;14.20;53.70
3699;DHT22;1865;50.918;7.092;2023-03-20T00:47:08;14.20;53.50
3699;DHT22;1865;50.918;7.092;2023-03-20T00:49:36;14.30;53.50
3699;DHT22;1865;50.918;7.092;2023-03-20T00:52:04;14.40;52.80
3699;DHT22;1865;50.918;7.092;2023-03-20T00:54:30;14.40;52.90
3699;DHT22;1865;50.918;7.092;2023-03-20T00:57:02;14.40;53.50
3699;DHT22;1865;50.918;7.092;2023-03-20T00:59:31;14.30;53.10
3699;DHT22;1865;50.918;7.092;2023-03-20T01:01:58;14.30;53.20
3699;DHT22;1865;50.918;7.092;2023-03-20T01:04:35;14.40;53.00
3699;DHT22;1865;50.918;7.092;2023-03-20T01:07:01;14.40;52.80
3699;DHT22;1865;50.918;7.092;2023-03-20T01:09:26;14.30;53.10
3699;DHT22;1865;50.918;7.092;2023-03-20T01:11:52;14.30;54.00
3699;DHT22;1865;50.918;7.092;2023-03-20T01:14:18;14.30;54.40
3699;DHT22;1865;50.918;7.092;2023-03-20T01:16:43;14.20;53.50
3699;DHT22;1865;50.918;7.092;2023-03-20T01:19:13;14.30;53.30
3699;DHT22;1865;50.918;7.092;2023-03-20T01:21:40;14.30;53.50
3699;DHT22;1865;50.918;7.092;2023-03-20T01:24:06;14.30;53.40
3699;DHT22;1865;50.918;7.092;2023-03-20T01:26:40;14.30;53.30
3699;DHT22;1865;50.918;7.092;2023-03-20T01:29:25;14.20;53.00
3699;DHT22;1865;50.918;7.092;2023-03-20T01:31:54;14.20;52.80
3699;DHT22;1865;50.918;7.092;2023-03-20T01:34:20;14.10;53.20
3699;DHT22;1865;50.918;7.092;2023-03-20T01:36:52;14.10;53.20
3699;DHT22;1865;50.918;7.092;2023-03-20T01:39:19;14.10;52.90
3699;DHT22;1865;50.918;7.092;2023-03-20T01:41:50;14.20;53.10
3699;DHT22;1865;50.918;7.092;2023-03-20T01:44:22;14.20;52.80
3699;DHT22;1865;50.918;7.092;2023-03-20T01:46:51;14.20;53.20
3699;DHT22;1865;50.918;7.092;2023-03-20T01:51:46;14.30;53.30
3699;DHT22;1865;50.918;7.092;2023-03-20T01:56:50;14.30;52.70
3699;DHT22;1865;50.918;7.092;2023-03-20T01:59:21;14.30;52.90
3699;DHT22;1865;50.918;7.092;2023-03-20T02:01:49;14.30;52.90
3699;DHT22;1865;50.918;7.092;2023-03-20T02:04:15;14.30;52.80
3699;DHT22;1865;50.918;7.092;2023-03-20T02:06:42;14.30;53.10
3699;DHT22;1865;50.918;7.092;2023-03-20T02:09:09;14.30;53.00
3699;DHT22;1865;50.918;7.092;2023-03-20T02:11:36;14.30;53.00
3699;DHT22;1865;50.918;7.092;2023-03-20T02:14:03;14.30;52.80
3699;DHT22;1865;50.918;7.092;2023-03-20T02:16:29;14.30;52.40
3699;DHT22;1865;50.918;7.092;2023-03-20T02:18:56;14.30;52.30
3699;DHT22;1865;50.918;7.092;2023-03-20T02:21:54;14.30;52.50
3699;DHT22;1865;50.918;7.092;2023-03-20T02:28:51;14.20;53.20
3699;DHT22;1865;50.918;7.092;2023-03-20T02:37:56;14.10;52.30
3699;DHT22;1865;50.918;7.092;2023-03-20T02:46:21;14.20;52.60
3699;DHT22;1865;50.918;7.092;2023-03-20T02:54:40;14.20;52.10
3699;DHT22;1865;50.918;7.092;2023-03-20T02:57:15;14.20;52.50
3699;DHT22;1865;50.918;7.092;2023-03-20T03:02:34;14.10;52.40
3699;DHT22;1865;50.918;7.092;2023-03-20T03:05:07;14.20;52.20
3699;DHT22;1865;50.918;7.092;2023-03-20T03:07:36;14.20;51.80
3699;DHT22;1865;50.918;7.092;2023-03-20T03:10:10;14.20;52.20
3699;DHT22;1865;50.918;7.092;2023-03-20T03:12:40;14.20;51.90
3699;DHT22;1865;50.918;7.092;2023-03-20T03:15:30;14.20;51.20
3699;DHT22;1865;50.918;7.092;2023-03-20T03:17:57;14.20;51.20
3699;DHT22;1865;50.918;7.092;2023-03-20T03:20:28;14.10;51.70
3699;DHT22;1865;50.918;7.092;2023-03-20T03:22:55;14.10;51.50
3699;DHT22;1865;50.918;7.092;2023-03-20T03:25:23;14.10;51.40
3699;DHT22;1865;50.918;7.092;2023-03-20T03:28:20;14.00;50.90
3699;DHT22;1865;50.918;7.092;2023-03-20T03:30:39;14.00;51.60
3699;DHT22;1865;50.918;7.092;2023-03-20T03:33:20;14.00;51.70
3699;DHT22;1865;50.918;7.092;2023-03-20T03:35:47;14.10;51.20
3699;DHT22;1865;50.918;7.092;2023-03-20T03:38:43;14.10;51.40
3699;DHT22;1865;50.918;7.092;2023-03-20T03:41:27;14.10;51.10
3699;DHT22;1865;50.918;7.092;2023-03-20T03:44:14;14.10;51.30
3699;DHT22;1865;50.918;7.092;2023-03-20T03:46:52;14.10;51.00
3699;DHT22;1865;50.918;7.092;2023-03-20T03:49:25;14.00;51.00
3699;DHT22;1865;50.918;7.092;2023-03-20T03:51:56;14.00;50.80
3699;DHT22;1865;50.918;7.092;2023-03-20T03:54:34;13.90;51.40
3699;DHT22;1865;50.918;7.092;2023-03-20T03:57:02;13.90;51.50
3699;DHT22;1865;50.918;7.092;2023-03-20T03:59:36;13.90;51.40
3699;DHT22;1865;50.918;7.092;2023-03-20T04:02:04;13.90;51.50
3699;DHT22;1865;50.918;7.092;2023-03-20T04:04:31;13.90;51.70
3699;DHT22;1865;50.918;7.092;2023-03-20T04:06:57;13.90;51.70
3699;DHT22;1865;50.918;7.092;2023-03-20T04:09:22;13.90;51.40
3699;DHT22;1865;50.918;7.092;2023-03-20T04:11:50;13.80;51.90
3699;DHT22;1865;50.918;7.092;2023-03-20T04:14:17;13.80;51.80
3699;DHT22;1865;50.918;7.092;2023-03-20T04:16:43;13.80;51.70
3699;DHT22;1865;50.918;7.092;2023-03-20T04:19:08;13.80;51.60
3699;DHT22;1865;50.918;7.092;2023-03-20T04:21:34;13.80;51.70
3699;DHT22;1865;50.918;7.092;2023-03-20T04:23:59;13.80;51.90
3699;DHT22;1865;50.918;7.092;2023-03-20T04:26:25;13.80;52.10
3699;DHT22;1865;50.918;7.092;2023-03-20T04:28:51;13.80;52.10
3699;DHT22;1865;50.918;7.092;2023-03-20T04:31:17;13.80;51.90
3699;DHT22;1865;50.918;7.092;2023-03-20T04:33:43;13.80;51.80
3699;DHT22;1865;50.918;7.092;2023-03-20T04:36:09;13.70;51.50
3699;DHT22;1865;50.918;7.092;2023-03-20T04:38:35;13.70;51.60
3699;DHT22;1865;50.918;7.092;2023-03-20T04:41:01;13.50;51.10
3699;DHT22;1865;50.918;7.092;2023-03-20T04:43:27;13.20;51.30
3699;DHT22;1865;50.918;7.092;2023-03-20T04:45:53;12.90;51.40
3699;DHT22;1865;50.918;7.092;2023-03-20T04:48:18;12.90;52.00
3699;DHT22;1865;50.918;7.092;2023-03-20T04:50:44;12.90;51.90
3699;DHT22;1865;50.918;7.092;2023-03-20T04:53:14;13.00;51.50
3699;DHT22;1865;50.918;7.092;2023-03-20T04:55:40;13.10;51.10
3699;DHT22;1865;50.918;7.092;2023-03-20T04:58:05;13.00;51.20
3699;DHT22;1865;50.918;7.092;2023-03-20T05:00:31;13.10;51.30
3699;DHT22;1865;50.918;7.092;2023-03-20T05:02:57;13.20;50.80
3699;DHT22;1865;50.918;7.092;2023-03-20T05:05:23;13.30;51.10
3699;DHT22;1865;50.918;7.092;2023-03-20T05:07:49;13.30;51.50
3699;DHT22;1865;50.918;7.092;2023-03-20T05:10:16;13.30;51.40
3699;DHT22;1865;50.918;7.092;2023-03-20T05:12:42;13.40;51.50
3699;DHT22;1865;50.918;7.092;2023-03-20T05:15:08;13.40;51.50
3699;DHT22;1865;50.918;7.092;2023-03-20T05:17:33;13.40;51.60
3699;DHT22;1865;50.918;7.092;2023-03-20T05:19:59;13.30;52.00
3699;DHT22;1865;50.918;7.092;2023-03-20T05:22:24;13.30;52.00
3699;DHT22;1865;50.918;7.092;2023-03-20T05:24:50;13.30;52.20
3699;DHT22;1865;50.918;7.092;2023-03-20T05:27:16;13.30;52.00
3699;DHT22;1865;50.918;7.092;2023-03-20T05:29:42;13.20;52.20
3699;DHT22;1865;50.918;7.092;2023-03-20T05:32:07;13.20;51.50
3699;DHT22;1865;50.918;7.092;2023-03-20T05:34:33;13.20;51.80
3699;DHT22;1865;50.918;7.092;2023-03-20T05:36:59;13.20;51.90
3699;DHT22;1865;50.918;7.092;2023-03-20T05:39:24;13.10;51.70
3699;DHT22;1865;50.918;7.092;2023-03-20T05:41:50;13.10;51.90
3699;DHT22;1865;50.918;7.092;2023-03-20T05:44:16;13.00;52.00
3699;DHT22;1865;50.918;7.092;2023-03-20T05:46:41;13.00;52.50
3699;DHT22;1865;50.918;7.092;2023-03-20T05:49:07;13.00;52.40
3699;DHT22;1865;50.918;7.092;2023-03-20T05:51:33;12.90;52.60
3699;DHT22;1865;50.918;7.092;2023-03-20T05:53:58;12.90;52.70
3699;DHT22;1865;50.918;7.092;2023-03-20T05:56:24;12.80;52.80
3699;DHT22;1865;50.918;7.092;2023-03-20T05:58:50;12.90;53.20
3699;DHT22;1865;50.918;7.092;2023-03-20T06:01:16;12.80;52.70
3699;DHT22;1865;50.918;7.092;2023-03-20T06:03:46;12.80;52.80
3699;DHT22;1865;50.918;7.092;2023-03-20T06:06:13;12.80;52.90
3699;DHT22;1865;50.918;7.092;2023-03-20T06:08:38;12.80;53.00
3699;DHT22;1865;50.918;7.092;2023-03-20T06:11:05;12.80;53.00
3699;DHT22;1865;50.918;7.092;2023-03-20T06:13:30;12.80;52.30
3699;DHT22;1865;50.918;7.092;2023-03-20T06:15:56;12.90;53.00
3699;DHT22;1865;50.918;7.092;2023-03-20T06:18:21;12.90;52.50
3699;DHT22;1865;50.918;7.092;2023-03-20T06:20:54;12.90;52.70
3699;DHT22;1865;50.918;7.092;2023-03-20T06:23:19;12.90;52.30
3699;DHT22;1865;50.918;7.092;2023-03-20T06:25:45;13.00;52.10
3699;DHT22;1865;50.918;7.092;2023-03-20T06:28:11;13.00;52.40
3699;DHT22;1865;50.918;7.092;2023-03-20T06:30:37;13.00;52.60
3699;DHT22;1865;50.918;7.092;2023-03-20T06:33:05;13.10;52.50
3699;DHT22;1865;50.918;7.092;2023-03-20T06:35:31;13.10;52.40
3699;DHT22;1865;50.918;7.092;2023-03-20T06:37:57;13.20;52.20
3699;DHT22;1865;50.918;7.092;2023-03-20T06:40:23;13.20;52.20
3699;DHT22;1865;50.918;7.092;2023-03-20T06:42:49;13.20;51.50
3699;DHT22;1865;50.918;7.092;2023-03-20T06:45:15;13.30;51.90
3699;DHT22;1865;50.918;7.092;2023-03-20T06:47:41;13.20;50.70
3699;DHT22;1865;50.918;7.092;2023-03-20T06:50:08;13.30;51.20
3699;DHT22;1865;50.918;7.092;2023-03-20T06:52:34;13.40;50.80
3699;DHT22;1865;50.918;7.092;2023-03-20T06:55:00;13.40;50.40
3699;DHT22;1865;50.918;7.092;2023-03-20T06:57:25;13.50;50.70
3699;DHT22;1865;50.918;7.092;2023-03-20T06:59:51;13.50;50.30
3699;DHT22;1865;50.918;7.092;2023-03-20T07:02:17;13.60;50.10
3699;DHT22;1865;50.918;7.092;2023-03-20T07:04:42;13.60;50.00
3699;DHT22;1865;50.918;7.092;2023-03-20T07:07:08;13.60;49.80
3699;DHT22;1865;50.918;7.092;2023-03-20T07:09:33;13.70;50.00
3699;DHT22;1865;50.918;7.092;2023-03-20T07:11:59;13.70;49.70
3699;DHT22;1865;50.918;7.092;2023-03-20T07:14:25;13.60;49.50
3699;DHT22;1865;50.918;7.092;2023-03-20T07:16:50;13.60;49.60
3699;DHT22;1865;50.918;7.092;2023-03-20T07:19:16;13.50;50.40
3699;DHT22;1865;50.918;7.092;2023-03-20T07:21:43;13.70;50.40
3699;DHT22;1865;50.918;7.092;2023-03-20T07:24:08;13.70;49.50
3699;DHT22;1865;50.918;7.092;2023-03-20T07:26:34;13.70;49.80
3699;DHT22;1865;50.918;7.092;2023-03-20T07:29:00;13.90;49.40
3699;DHT22;1865;50.918;7.092;2023-03-20T07:31:27;14.00;49.10
3699;DHT22;1865;50.918;7.092;2023-03-20T07:33:54;13.90;48.50
3699;DHT22;1865;50.918;7.092;2023-03-20T07:36:19;13.80;48.90
3699;DHT22;1865;50.918;7.092;2023-03-20T07:38:46;14.00;49.10
3699;DHT22;1865;50.918;7.092;2023-03-20T07:41:12;13.90;48.10
3699;DHT22;1865;50.918;7.092;2023-03-20T07:43:37;14.00;47.70
3699;DHT22;1865;50.918;7.092;2023-03-20T07:46:04;14.00;48.80
3699;DHT22;1865;50.918;7.092;2023-03-20T07:48:30;14.20;48.00
3699;DHT22;1865;50.918;7.092;2023-03-20T07:50:56;14.20;46.80
3699;DHT22;1865;50.918;7.092;2023-03-20T07:53:22;14.00;47.40
3699;DHT22;1865;50.918;7.092;2023-03-20T07:55:47;13.90;47.80
3699;DHT22;1865;50.918;7.092;2023-03-20T07:58:13;13.80;47.70
3699;DHT22;1865;50.918;7.092;2023-03-20T08:00:38;13.70;48.20
3699;DHT22;1865;50.918;7.092;2023-03-20T08:03:04;13.80;47.80
3699;DHT22;1865;50.918;7.092;2023-03-20T08:05:30;13.70;46.90
3699;DHT22;1865;50.918;7.092;2023-03-20T08:07:55;13.70;46.70
3699;DHT22;1865;50.918;7.092;2023-03-20T08:10:21;13.80;46.60
3699;DHT22;1865;50.918;7.092;2023-03-20T08:12:46;13.90;46.50
3699;DHT22;1865;50.918;7.092;2023-03-20T08:15:12;14.00;45.80
3699;DHT22;1865;50.918;7.092;2023-03-20T08:17:41;13.90;45.50
3699;DHT22;1865;50.918;7.092;2023-03-20T08:20:08;13.90;46.00
3699;DHT22;1865;50.918;7.092;2023-03-20T08:22:34;14.00;45.90
3699;DHT22;1865;50.918;7.092;2023-03-20T08:24:59;14.00;44.40
3699;DHT22;1865;50.918;7.092;2023-03-20T08:27:25;13.80;43.10
3699;DHT22;1865;50.918;7.092;2023-03-20T08:29:50;13.80;43.90
3699;DHT22;1865;50.918;7.092;2023-03-20T08:32:16;13.70;43.70
3699;DHT22;1865;50.918;7.092;2023-03-20T08:34:42;13.70;43.30
3699;DHT22;1865;50.918;7.092;2023-03-20T08:37:07;13.70;43.90
3699;DHT22;1865;50.918;7.092;2023-03-20T08:39:34;13.80;43.10
3699;DHT22;1865;50.918;7.092;2023-03-20T08:42:00;13.60;43.40
3699;DHT22;1865;50.918;7.092;2023-03-20T08:44:25;13.80;43.20
3699;DHT22;1865;50.918;7.092;2023-03-20T08:46:51;13.90;43.00
3699;DHT22;1865;50.918;7.092;2023-03-20T08:49:19;14.00;42.00
3699;DHT22;1865;50.918;7.092;2023-03-20T08:51:45;14.10;42.20
3699;DHT22;1865;50.918;7.092;2023-03-20T08:54:11;14.10;42.10
3699;DHT22;1865;50.918;7.092;2023-03-20T08:56:36;14.10;42.30
3699;DHT22;1865;50.918;7.092;2023-03-20T08:59:02;14.00;42.50
3699;DHT22;1865;50.918;7.092;2023-03-20T09:01:28;14.20;41.60
3699;DHT22;1865;50.918;7.092;2023-03-20T09:03:53;14.30;41.10
3699;DHT22;1865;50.918;7.092;2023-03-20T09:06:19;14.50;41.30
3699;DHT22;1865;50.918;7.092;2023-03-20T09:08:45;14.70;41.40
3699;DHT22;1865;50.918;7.092;2023-03-20T09:11:10;14.70;40.80
3699;DHT22;1865;50.918;7.092;2023-03-20T09:13:36;14.40;40.70
3699;DHT22;1865;50.918;7.092;2023-03-20T09:16:02;14.60;41.10
3699;DHT22;1865;50.918;7.092;2023-03-20T09:18:27;14.80;41.50
3699;DHT22;1865;50.918;7.092;2023-03-20T09:20:53;14.70;40.20
3699;DHT22;1865;50.918;7.092;2023-03-20T09:23:21;14.50;41.00
3699;DHT22;1865;50.918;7.092;2023-03-20T09:25:46;14.60;40.20
3699;DHT22;1865;50.918;7.092;2023-03-20T09:28:12;14.60;40.40
3699;DHT22;1865;50.918;7.092;2023-03-20T09:30:37;14.40;39.30
3699;DHT22;1865;50.918;7.092;2023-03-20T09:33:03;14.30;40.20
3699;DHT22;1865;50.918;7.092;2023-03-20T09:35:29;14.30;41.20
3699;DHT22;1865;50.918;7.092;2023-03-20T09:37:54;14.50;40.90
3699;DHT22;1865;50.918;7.092;2023-03-20T09:40:28;14.50;40.20
3699;DHT22;1865;50.918;7.092;2023-03-20T09:53:41;14.30;40.00
3699;DHT22;1865;50.918;7.092;2023-03-20T09:56:22;14.40;40.40
3699;DHT22;1865;50.918;7.092;2023-03-20T09:58:54;14.40;40.20
3699;DHT22;1865;50.918;7.092;2023-03-20T10:01:26;14.30;40.10
3699;DHT22;1865;50.918;7.092;2023-03-20T10:04:00;14.30;40.50
3699;DHT22;1865;50.918;7.092;2023-03-20T10:06:27;14.50;40.70
3699;DHT22;1865;50.918;7.092;2023-03-20T10:08:53;14.50;39.90
3699;DHT22;1865;50.918;7.092;2023-03-20T10:11:37;14.60;41.10
3699;DHT22;1865;50.918;7.092;2023-03-20T10:17:39;14.90;39.20
3699;DHT22;1865;50.918;7.092;2023-03-20T10:20:20;14.80;40.30
3699;DHT22;1865;50.918;7.092;2023-03-20T10:22:52;14.90;39.80
3699;DHT22;1865;50.918;7.092;2023-03-20T10:25:30;14.90;39.50
3699;DHT22;1865;50.918;7.092;2023-03-20T10:28:28;15.20;38.60
3699;DHT22;1865;50.918;7.092;2023-03-20T10:34:02;15.20;38.30
3699;DHT22;1865;50.918;7.092;2023-03-20T10:42:27;15.20;38.50
3699;DHT22;1865;50.918;7.092;2023-03-20T10:45:07;15.00;38.80
3699;DHT22;1865;50.918;7.092;2023-03-20T10:47:35;15.00;39.40
3699;DHT22;1865;50.918;7.092;2023-03-20T10:50:07;14.90;39.20
3699;DHT22;1865;50.918;7.092;2023-03-20T10:52:38;15.00;39.60
3699;DHT22;1865;50.918;7.092;2023-03-20T10:55:06;15.00;39.40
3699;DHT22;1865;50.918;7.092;2023-03-20T11:00:06;15.10;39.30
3699;DHT22;1865;50.918;7.092;2023-03-20T11:02:37;15.10;38.90
3699;DHT22;1865;50.918;7.092;2023-03-20T11:05:23;15.10;38.70
3699;DHT22;1865;50.918;7.092;2023-03-20T11:08:05;15.00;37.40
3699;DHT22;1865;50.918;7.092;2023-03-20T11:10:34;15.20;37.40
3699;DHT22;1865;50.918;7.092;2023-03-20T11:13:13;15.20;36.70
3699;DHT22;1865;50.918;7.092;2023-03-20T11:15:41;15.20;37.00
3699;DHT22;1865;50.918;7.092;2023-03-20T11:18:10;15.10;36.80
3699;DHT22;1865;50.918;7.092;2023-03-20T11:20:50;15.00;36.00
3699;DHT22;1865;50.918;7.092;2023-03-20T11:23:19;14.90;36.60
3699;DHT22;1865;50.918;7.092;2023-03-20T11:25:49;15.10;37.50
3699;DHT22;1865;50.918;7.092;2023-03-20T11:30:45;15.30;34.20
3699;DHT22;1865;50.918;7.092;2023-03-20T11:33:11;15.00;32.60
3699;DHT22;1865;50.918;7.092;2023-03-20T11:35:37;14.90;33.70
3699;DHT22;1865;50.918;7.092;2023-03-20T11:38:19;14.90;34.20
3699;DHT22;1865;50.918;7.092;2023-03-20T11:40:46;15.00;34.00
3699;DHT22;1865;50.918;7.092;2023-03-20T11:43:19;14.90;34.40
3699;DHT22;1865;50.918;7.092;2023-03-20T11:45:57;14.90;34.40
3699;DHT22;1865;50.918;7.092;2023-03-20T11:48:42;14.80;35.20
3699;DHT22;1865;50.918;7.092;2023-03-20T11:51:14;14.90;36.20
3699;DHT22;1865;50.918;7.092;2023-03-20T11:56:23;15.20;35.30
3699;DHT22;1865;50.918;7.092;2023-03-20T11:59:00;15.10;35.00
3699;DHT22;1865;50.918;7.092;2023-03-20T12:01:28;14.90;35.10
3699;DHT22;1865;50.918;7.092;2023-03-20T12:06:36;14.90;35.60
3699;DHT22;1865;50.918;7.092;2023-03-20T12:09:10;14.70;34.30
3699;DHT22;1865;50.918;7.092;2023-03-20T12:12:14;14.70;34.40
3699;DHT22;1865;50.918;7.092;2023-03-20T12:14:56;14.90;34.80
3699;DHT22;1865;50.918;7.092;2023-03-20T12:19:58;15.00;34.80
3699;DHT22;1865;50.918;7.092;2023-03-20T12:22:29;14.90;34.80
3699;DHT22;1865;50.918;7.092;2023-03-20T12:25:23;14.90;34.40
3699;DHT22;1865;50.918;7.092;2023-03-20T12:28:11;14.90;34.10
3699;DHT22;1865;50.918;7.092;2023-03-20T12:31:13;14.70;34.10
3699;DHT22;1865;50.918;7.092;2023-03-20T12:33:48;14.80;34.30
3699;DHT22;1865;50.918;7.092;2023-03-20T12:36:24;15.10;34.10
3699;DHT22;1865;50.918;7.092;2023-03-20T12:38:51;14.90;34.20
3699;DHT22;1865;50.918;7.092;2023-03-20T12:41:36;14.90;34.80
3699;DHT22;1865;50.918;7.092;2023-03-20T12:58:35;15.00;35.10
3699;DHT22;1865;50.918;7.092;2023-03-20T13:07:01;15.20;35.30
3699;DHT22;1865;50.918;7.092;2023-03-20T13:15:40;14.80;37.20
3699;DHT22;1865;50.918;7.092;2023-03-20T13:18:18;15.10;39.20
3699;DHT22;1865;50.918;7.092;2023-03-20T13:20:51;14.90;38.30
3699;DHT22;1865;50.918;7.092;2023-03-20T13:28:59;15.20;37.80
3699;DHT22;1865;50.918;7.092;2023-03-20T13:31:35;15.30;38.60
3699;DHT22;1865;50.918;7.092;2023-03-20T13:34:27;15.40;36.60
3699;DHT22;1865;50.918;7.092;2023-03-20T13:39:42;15.20;36.30
3699;DHT22;1865;50.918;7.092;2023-03-20T13:42:16;15.00;37.10
3699;DHT22;1865;50.918;7.092;2023-03-20T13:44:42;15.30;37.30
3699;DHT22;1865;50.918;7.092;2023-03-20T13:47:18;15.20;37.10
3699;DHT22;1865;50.918;7.092;2023-03-20T13:49:55;15.10;35.80
3699;DHT22;1865;50.918;7.092;2023-03-20T13:52:27;15.20;37.00
3699;DHT22;1865;50.918;7.092;2023-03-20T13:55:34;15.20;36.00
3699;DHT22;1865;50.918;7.092;2023-03-20T14:00:45;15.60;36.00
3699;DHT22;1865;50.918;7.092;2023-03-20T14:03:32;15.70;35.30
3699;DHT22;1865;50.918;7.092;2023-03-20T14:05:59;15.80;35.30
3699;DHT22;1865;50.918;7.092;2023-03-20T14:11:14;15.80;35.20
3699;DHT22;1865;50.918;7.092;2023-03-20T14:13:44;16.00;35.30
3699;DHT22;1865;50.918;7.092;2023-03-20T14:16:13;16.00;34.80
3699;DHT22;1865;50.918;7.092;2023-03-20T14:18:40;16.20;34.50
3699;DHT22;1865;50.918;7.092;2023-03-20T14:21:11;16.30;34.20
3699;DHT22;1865;50.918;7.092;2023-03-20T14:23:42;16.30;34.30
3699;DHT22;1865;50.918;7.092;2023-03-20T14:26:25;16.30;34.60
3699;DHT22;1865;50.918;7.092;2023-03-20T14:28:57;16.20;34.10
3699;DHT22;1865;50.918;7.092;2023-03-20T14:31:29;16.00;34.50
3699;DHT22;1865;50.918;7.092;2023-03-20T14:42:14;15.60;35.50
3699;DHT22;1865;50.918;7.092;2023-03-20T14:53:30;15.40;36.60
3699;DHT22;1865;50.918;7.092;2023-03-20T14:56:08;15.60;37.10
3699;DHT22;1865;50.918;7.092;2023-03-20T15:01:07;15.80;36.50
3699;DHT22;1865;50.918;7.092;2023-03-20T15:03:33;15.80;36.30
3699;DHT22;1865;50.918;7.092;2023-03-20T15:06:04;15.70;37.20
3699;DHT22;1865;50.918;7.092;2023-03-20T15:08:34;15.80;36.80
3699;DHT22;1865;50.918;7.092;2023-03-20T15:11:07;15.80;36.30
3699;DHT22;1865;50.918;7.092;2023-03-20T15:13:34;15.90;37.20
3699;DHT22;1865;50.918;7.092;2023-03-20T15:18:43;16.00;36.80
3699;DHT22;1865;50.918;7.092;2023-03-20T15:21:33;16.00;38.30
3699;DHT22;1865;50.918;7.092;2023-03-20T15:23:59;16.10;37.90
3699;DHT22;1865;50.918;7.092;2023-03-20T15:26:27;16.30;37.70
3699;DHT22;1865;50.918;7.092;2023-03-20T15:29:03;16.30;36.40
3699;DHT22;1865;50.918;7.092;2023-03-20T15:31:37;16.20;36.70
3699;DHT22;1865;50.918;7.092;2023-03-20T15:34:08;16.20;36.00
3699;DHT22;1865;50.918;7.092;2023-03-20T15:36:35;16.10;36.50
3699;DHT22;1865;50.918;7.092;2023-03-20T15:39:07;16.20;36.60
3699;DHT22;1865;50.918;7.092;2023-03-20T15:41:38;16.30;36.50
3699;DHT22;1865;50.918;7.092;2023-03-20T15:44:40;16.40;36.20
3699;DHT22;1865;50.918;7.092;2023-03-20T15:49:35;16.50;35.60
3699;DHT22;1865;50.918;7.092;2023-03-20T15:52:25;16.50;35.50
3699;DHT22;1865;50.918;7.092;2023-03-20T15:54:52;16.50;35.50
3699;DHT22;1865;50.918;7.092;2023-03-20T15:57:33;16.50;35.90
3699;DHT22;1865;50.918;7.092;2023-03-20T15:59:59;16.40;35.60
3699;DHT22;1865;50.918;7.092;2023-03-20T16:02:25;16.40;35.70
3699;DHT22;1865;50.918;7.092;2023-03-20T16:04:52;16.30;36.20
3699;DHT22;1865;50.918;7.092;2023-03-20T16:07:30;16.30;36.10
3699;DHT22;1865;50.918;7.092;2023-03-20T16:09:56;16.50;36.30
3699;DHT22;1865;50.918;7.092;2023-03-20T16:12:22;16.50;36.50
3699;DHT22;1865;50.918;7.092;2023-03-20T16:14:48;16.70;36.40
3699;DHT22;1865;50.918;7.092;2023-03-20T16:17:17;16.80;35.90
3699;DHT22;1865;50.918;7.092;2023-03-20T16:19:43;16.80;35.20
3699;DHT22;1865;50.918;7.092;2023-03-20T16:22:19;16.80;35.40
3699;DHT22;1865;50.918;7.092;2023-03-20T16:24:50;16.70;35.00
3699;DHT22;1865;50.918;7.092;2023-03-20T16:27:24;16.70;34.90
3699;DHT22;1865;50.918;7.092;2023-03-20T16:29:51;16.60;35.10
3699;DHT22;1865;50.918;7.092;2023-03-20T16:34:48;16.60;35.60
3699;DHT22;1865;50.918;7.092;2023-03-20T16:37:29;16.60;35.80
3699;DHT22;1865;50.918;7.092;2023-03-20T16:40:14;16.60;35.90
3699;DHT22;1865;50.918;7.092;2023-03-20T16:42:40;16.60;36.00
3699;DHT22;1865;50.918;7.092;2023-03-20T16:45:18;16.70;36.00
3699;DHT22;1865;50.918;7.092;2023-03-20T16:47:47;16.70;35.60
3699;DHT22;1865;50.918;7.092;2023-03-20T16:50:21;16.80;35.40
3699;DHT22;1865;50.918;7.092;2023-03-20T16:52:55;16.80;35.30
3699;DHT22;1865;50.918;7.092;2023-03-20T16:55:25;16.70;35.10
3699;DHT22;1865;50.918;7.092;2023-03-20T16:57:57;16.80;35.80
3699;DHT22;1865;50.918;7.092;2023-03-20T17:00:27;16.80;35.60
3699;DHT22;1865;50.918;7.092;2023-03-20T17:03:24;16.80;35.60
3699;DHT22;1865;50.918;7.092;2023-03-20T17:05:59;16.70;35.80
3699;DHT22;1865;50.918;7.092;2023-03-20T17:08:35;16.80;36.90
3699;DHT22;1865;50.918;7.092;2023-03-20T17:11:07;16.70;36.70
3699;DHT22;1865;50.918;7.092;2023-03-20T17:13:34;16.70;37.20
3699;DHT22;1865;50.918;7.092;2023-03-20T17:16:00;16.60;35.80
3699;DHT22;1865;50.918;7.092;2023-03-20T17:18:27;16.50;36.30
3699;DHT22;1865;50.918;7.092;2023-03-20T17:20:53;16.50;36.30
3699;DHT22;1865;50.918;7.092;2023-03-20T17:23:20;16.50;36.30
3699;DHT22;1865;50.918;7.092;2023-03-20T17:25:46;16.50;37.40
3699;DHT22;1865;50.918;7.092;2023-03-20T17:28:20;16.50;37.80
3699;DHT22;1865;50.918;7.092;2023-03-20T17:30:48;16.40;36.80
3699;DHT22;1865;50.918;7.092;2023-03-20T17:33:15;16.40;37.70
3699;DHT22;1865;50.918;7.092;2023-03-20T17:35:42;16.40;38.80
3699;DHT22;1865;50.918;7.092;2023-03-20T17:38:16;16.30;39.20
3699;DHT22;1865;50.918;7.092;2023-03-20T17:40:42;16.30;37.80
3699;DHT22;1865;50.918;7.092;2023-03-20T17:43:10;16.20;38.60
3699;DHT22;1865;50.918;7.092;2023-03-20T17:45:36;16.30;38.20
3699;DHT22;1865;50.918;7.092;2023-03-20T17:48:02;16.20;39.10
3699;DHT22;1865;50.918;7.092;2023-03-20T17:50:27;16.20;39.60
3699;DHT22;1865;50.918;7.092;2023-03-20T17:52:53;16.10;38.90
3699;DHT22;1865;50.918;7.092;2023-03-20T17:55:19;16.10;40.70
3699;DHT22;1865;50.918;7.092;2023-03-20T17:57:45;16.10;40.60
3699;DHT22;1865;50.918;7.092;2023-03-20T18:00:17;16.00;39.10
3699;DHT22;1865;50.918;7.092;2023-03-20T18:02:44;15.90;40.20
3699;DHT22;1865;50.918;7.092;2023-03-20T18:05:10;15.80;40.00
3699;DHT22;1865;50.918;7.092;2023-03-20T18:07:36;15.80;37.80
3699;DHT22;1865;50.918;7.092;2023-03-20T18:10:02;15.70;37.40
3699;DHT22;1865;50.918;7.092;2023-03-20T18:12:28;15.70;38.40
3699;DHT22;1865;50.918;7.092;2023-03-20T18:14:54;15.60;37.50
3699;DHT22;1865;50.918;7.092;2023-03-20T18:17:19;15.60;37.80
3699;DHT22;1865;50.918;7.092;2023-03-20T18:19:45;15.60;36.80
3699;DHT22;1865;50.918;7.092;2023-03-20T18:22:10;15.60;37.30
3699;DHT22;1865;50.918;7.092;2023-03-20T18:24:36;15.70;37.30
3699;DHT22;1865;50.918;7.092;2023-03-20T18:27:05;15.80;37.50
3699;DHT22;1865;50.918;7.092;2023-03-20T18:29:30;15.80;37.70
3699;DHT22;1865;50.918;7.092;2023-03-20T18:31:56;15.90;39.10
3699;DHT22;1865;50.918;7.092;2023-03-20T18:34:21;15.90;38.30